MMPN/UPN METAR and TAF weather

Enter ICAO airport designator
Station Type Date Time Source
MMPN METAR 2019/12/16 01:40 UTC NOAA

MMPN 160140Z 00000KT 5SM SKC 19/14 A3015 RMK HZY SC


Station Type Date Time Source
MMPN Decoded METAR 2019/12/16 01:40 UTC NOAA

Uruapan / Gen Rayon, Mexico (MMPN) 19-24N 102-02W
Dec 15, 2019 - 08:40 PM EST / 2019.12.16 0140 UTC
Wind: Calm:0
Visibility: 5 mile(s):0
Sky conditions: clear
Temperature: 66 F (19 C)
Dew Point: 57 F (14 C)
Relative Humidity: 72%
Pressure (altimeter): 30.15 in. Hg (1020 hPa)
ob: MMPN 160140Z 00000KT 5SM SKC 19/14 A3015 RMK HZY SC
cycle: 1

Station Type Date Time Source
MMPN TAF 2019/12/15 18:47 UTC NOAA

TAF MMPN 151640Z 1518/1618 18010KT P6SM SKC
BECMG 1601/1602 00000KT
TEMPO 1611/1615 3SM BR
FM161700 18010KT P6SM SCT200

Example: see airport list